createdAt,value
2018-05-10T00:00:02.614Z,3.4
2018-05-10T00:01:02.656Z,3.8
2018-05-10T00:02:02.605Z,3.6
2018-05-10T00:03:02.637Z,3.7
2018-05-10T00:04:02.632Z,3.7
2018-05-10T00:05:02.633Z,3.8
2018-05-10T00:06:02.654Z,3.6
2018-05-10T00:07:02.686Z,3.4
2018-05-10T00:08:02.958Z,3.4
2018-05-10T00:09:02.696Z,3.3
2018-05-10T00:10:02.963Z,3.4
2018-05-10T00:11:02.667Z,3.8
2018-05-10T00:12:02.719Z,3.5
2018-05-10T00:13:02.681Z,3.7
2018-05-10T00:14:02.975Z,3.2
2018-05-10T00:15:02.718Z,3.4
2018-05-10T00:16:08.094Z,3.5
2018-05-10T00:19:03.851Z,3.2
2018-05-10T00:20:03.047Z,3.2
2018-05-10T00:21:02.740Z,3.6
2018-05-10T00:22:02.734Z,3.6
2018-05-10T00:23:02.683Z,3.5
2018-05-10T00:24:02.725Z,3.2
2018-05-10T00:25:02.703Z,3.5
2018-05-10T00:26:03.024Z,3.4
2018-05-10T00:27:02.704Z,3.4
2018-05-10T00:28:02.729Z,3.5
2018-05-10T00:29:02.699Z,3.5
2018-05-10T00:30:02.735Z,3.3
2018-05-10T00:31:02.656Z,3.4
2018-05-10T00:32:02.713Z,3.7
2018-05-10T00:33:02.696Z,3.2
2018-05-10T00:34:02.758Z,3.5
2018-05-10T00:35:02.697Z,3.6
2018-05-10T00:36:03.042Z,3.5
2018-05-10T00:37:02.683Z,3.7
2018-05-10T00:38:02.671Z,3.7
2018-05-10T00:39:02.740Z,3.6
2018-05-10T00:40:02.762Z,3.5
2018-05-10T00:41:02.983Z,3.4
2018-05-10T00:42:02.796Z,3.5
2018-05-10T00:43:03.129Z,3.3
2018-05-10T00:44:02.816Z,3.3
2018-05-10T00:45:03.049Z,3.6
2018-05-10T00:46:02.810Z,3.7
2018-05-10T00:47:02.759Z,3.4
2018-05-10T00:48:02.789Z,3.4
2018-05-10T00:49:02.854Z,3.5
2018-05-10T00:50:02.913Z,3.3
2018-05-10T00:51:02.762Z,3.1
2018-05-10T00:52:03.114Z,3.2
2018-05-10T00:53:02.823Z,3.4
2018-05-10T00:54:02.793Z,3.5
2018-05-10T00:55:03.037Z,3.2
2018-05-10T00:56:02.772Z,3.2
2018-05-10T00:57:02.754Z,3.3
2018-05-10T00:58:02.747Z,3.3
2018-05-10T00:59:02.878Z,3.3
2018-05-10T01:00:03.040Z,3.7
2018-05-10T01:01:02.734Z,3.6
2018-05-10T01:02:02.859Z,3.5
2018-05-10T01:03:03.040Z,3.2
2018-05-10T01:04:03.059Z,3.4
2018-05-10T01:05:02.778Z,3.4
2018-05-10T01:06:02.784Z,3.4
2018-05-10T01:07:02.756Z,3.4
2018-05-10T01:08:02.768Z,3.5
2018-05-10T01:09:02.827Z,3.5
2018-05-10T01:10:02.758Z,3.5
2018-05-10T01:11:03.031Z,3.6
2018-05-10T01:12:03.068Z,3.5
2018-05-10T01:13:03.429Z,3.4
2018-05-10T01:14:03.119Z,3.5
2018-05-10T01:15:02.890Z,3.5
2018-05-10T01:16:02.775Z,3.6
2018-05-10T01:17:04.942Z,3.5
2018-05-10T01:18:02.807Z,3.7
2018-05-10T01:19:03.124Z,3.3
2018-05-10T01:20:02.957Z,3.4
2018-05-10T01:21:02.856Z,3.4
2018-05-10T01:22:02.801Z,3.6
2018-05-10T01:23:02.835Z,3.4
2018-05-10T01:24:02.813Z,3.5
2018-05-10T01:25:02.853Z,3.2
2018-05-10T01:26:02.830Z,3.4
2018-05-10T01:27:02.833Z,3.5
2018-05-10T01:28:51.386Z,3.2
2018-05-10T01:29:51.354Z,3.4
2018-05-10T01:30:51.089Z,3.6
2018-05-10T01:31:51.152Z,3.3
2018-05-10T01:32:51.055Z,3.5
2018-05-10T01:33:51.031Z,3.6
2018-05-10T01:34:51.086Z,3.2
2018-05-10T01:35:51.159Z,3.3
2018-05-10T01:36:51.014Z,3.5
2018-05-10T01:37:51.005Z,3.6
2018-05-10T01:39:01.552Z,3.4
2018-05-10T01:39:51.411Z,3.7
2018-05-10T01:40:51.099Z,3.3
2018-05-10T01:41:51.037Z,3.3
2018-05-10T01:42:51.025Z,3.6
2018-05-10T01:43:51.291Z,3.6
2018-05-10T01:44:50.985Z,3.5
2018-05-10T01:45:50.964Z,3.4
2018-05-10T01:46:51.014Z,3.2
2018-05-10T01:47:50.957Z,3.4
2018-05-10T01:48:51.033Z,3.7
2018-05-10T01:49:51.032Z,3.3
2018-05-10T01:50:51.426Z,3.6
2018-05-10T01:51:50.989Z,3.5
2018-05-10T01:52:50.989Z,3.0
2018-05-10T01:53:50.975Z,3.3
2018-05-10T01:54:51.011Z,3.6
2018-05-10T01:55:51.201Z,3.5
2018-05-10T01:56:50.994Z,3.2
2018-05-10T01:57:51.269Z,3.4
2018-05-10T01:58:51.026Z,3.2
2018-05-10T01:59:51.071Z,3.6
2018-05-10T02:00:50.972Z,3.4
2018-05-10T02:01:50.996Z,3.4
2018-05-10T02:02:51.001Z,3.4
2018-05-10T02:03:51.324Z,3.2
2018-05-10T02:04:50.979Z,3.3
2018-05-10T02:05:51.042Z,3.5
2018-05-10T02:06:51.050Z,3.2
2018-05-10T02:07:51.077Z,3.5
2018-05-10T02:08:50.992Z,3.4
2018-05-10T02:09:51.015Z,3.4
2018-05-10T02:10:51.022Z,3.2
2018-05-10T02:11:51.373Z,3.3
2018-05-10T02:12:51.053Z,3.4
2018-05-10T02:13:51.014Z,3.5
2018-05-10T02:14:51.221Z,3.5
2018-05-10T02:15:51.007Z,3.5
2018-05-10T02:16:51.041Z,3.2
2018-05-10T02:17:51.004Z,3.4
2018-05-10T02:18:51.047Z,3.6
2018-05-10T02:19:51.382Z,3.5
2018-05-10T02:20:51.369Z,3.4
2018-05-10T02:21:51.345Z,3.3
2018-05-10T02:22:51.023Z,3.3
2018-05-10T02:23:51.031Z,3.3
2018-05-10T02:24:51.039Z,3.2
2018-05-10T02:25:51.065Z,3.8
2018-05-10T02:26:51.532Z,3.2
2018-05-10T02:27:51.078Z,3.4
2018-05-10T02:28:51.125Z,3.5
2018-05-10T02:29:51.171Z,3.7
2018-05-10T02:30:51.073Z,3.6
2018-05-10T02:31:51.430Z,3.5
2018-05-10T02:32:51.266Z,3.4
2018-05-10T02:33:51.033Z,3.4
2018-05-10T02:34:51.146Z,3.5
2018-05-10T02:35:51.413Z,3.6
2018-05-10T02:36:51.095Z,3.6
2018-05-10T02:38:51.258Z,3.7
2018-05-10T02:39:51.442Z,3.5
2018-05-10T02:40:58.545Z,3.3
2018-05-10T02:41:51.089Z,3.3
2018-05-10T02:42:52.702Z,3.5
2018-05-10T02:43:51.076Z,3.2
2018-05-10T02:44:51.238Z,3.5
2018-05-10T02:45:51.167Z,3.8
2018-05-10T02:46:51.276Z,3.3
2018-05-10T02:47:51.200Z,3.7
2018-05-10T02:48:51.088Z,3.3
2018-05-10T02:49:51.442Z,3.6
2018-05-10T02:50:51.158Z,3.6
2018-05-10T02:51:51.102Z,3.2
2018-05-10T02:52:51.049Z,3.5
2018-05-10T02:53:51.123Z,3.6
2018-05-10T02:54:51.365Z,3.7
2018-05-10T02:55:51.483Z,3.6
2018-05-10T02:56:51.149Z,3.8
2018-05-10T02:57:51.118Z,3.7
2018-05-10T02:58:51.175Z,3.5
2018-05-10T02:59:56.286Z,3.5
2018-05-10T03:00:51.109Z,3.6
2018-05-10T03:01:51.424Z,3.6
2018-05-10T03:02:51.068Z,3.5
2018-05-10T03:03:51.775Z,3.7
2018-05-10T03:05:02.216Z,3.5
2018-05-10T03:05:55.532Z,3.7
2018-05-10T03:07:51.089Z,3.8
2018-05-10T03:08:51.081Z,3.7
2018-05-10T03:09:51.434Z,3.6
2018-05-10T03:10:51.437Z,3.7
2018-05-10T03:11:51.461Z,3.7
2018-05-10T03:12:51.125Z,3.7
2018-05-10T03:13:51.177Z,3.6
2018-05-10T03:14:51.090Z,4.0
2018-05-10T03:15:51.099Z,3.8
2018-05-10T03:16:51.123Z,3.7
2018-05-10T03:17:51.127Z,3.8
2018-05-10T03:18:51.134Z,3.7
2018-05-10T03:19:51.074Z,3.4
2018-05-10T03:20:51.100Z,3.8
2018-05-10T03:21:51.093Z,3.6
2018-05-10T03:22:51.421Z,3.9
2018-05-10T03:23:51.127Z,3.7
2018-05-10T03:24:51.407Z,3.4
2018-05-10T03:25:51.431Z,3.9
2018-05-10T03:26:51.103Z,3.9
2018-05-10T03:27:51.159Z,3.6
2018-05-10T03:28:51.115Z,3.7
2018-05-10T03:29:51.103Z,3.6
2018-05-10T03:30:51.145Z,3.5
2018-05-10T03:31:51.172Z,3.7
2018-05-10T03:32:51.209Z,3.8
2018-05-10T03:33:51.182Z,3.5
2018-05-10T03:34:51.188Z,3.8
2018-05-10T03:35:51.228Z,3.8
2018-05-10T03:36:51.117Z,3.6
2018-05-10T03:37:51.172Z,3.6
2018-05-10T03:38:51.124Z,3.8
2018-05-10T03:39:51.151Z,3.9
2018-05-10T03:40:51.520Z,3.7
2018-05-10T03:41:51.201Z,3.7
2018-05-10T03:42:51.155Z,3.8
2018-05-10T03:43:51.149Z,3.9
2018-05-10T03:44:51.172Z,3.7
2018-05-10T03:45:51.144Z,3.6
2018-05-10T03:46:51.432Z,3.6
2018-05-10T03:47:51.149Z,3.4
2018-05-10T03:48:51.457Z,3.7
2018-05-10T03:49:51.370Z,3.5
2018-05-10T03:50:51.463Z,3.9
2018-05-10T03:51:51.490Z,3.5
2018-05-10T03:52:51.214Z,3.8
2018-05-10T03:53:51.139Z,3.8
2018-05-10T03:54:51.485Z,4.0
2018-05-10T03:55:52.119Z,3.8
2018-05-10T03:56:51.173Z,3.6
2018-05-10T03:57:51.218Z,4.1
2018-05-10T03:58:51.188Z,3.8
2018-05-10T03:59:51.517Z,3.5
2018-05-10T04:00:51.172Z,3.7
2018-05-10T04:01:51.162Z,3.9
2018-05-10T04:02:52.056Z,3.8
2018-05-10T04:03:51.217Z,3.7
2018-05-10T04:04:51.162Z,3.7
2018-05-10T04:05:51.154Z,3.9
2018-05-10T04:06:51.177Z,3.9
2018-05-10T04:07:51.233Z,3.8
2018-05-10T04:08:51.500Z,3.9
2018-05-10T04:09:51.204Z,3.9
2018-05-10T04:10:51.159Z,3.7
2018-05-10T04:11:51.442Z,4.1
2018-05-10T04:12:51.486Z,3.9
2018-05-10T04:13:51.181Z,4.0
2018-05-10T04:14:51.199Z,3.6
2018-05-10T04:15:51.275Z,3.6
2018-05-10T04:16:51.275Z,3.7
2018-05-10T04:17:51.328Z,3.7
2018-05-10T04:18:51.363Z,3.6
2018-05-10T04:19:51.293Z,3.4
2018-05-10T04:20:51.569Z,3.6
2018-05-10T04:21:51.358Z,3.7
2018-05-10T04:22:51.293Z,4.1
2018-05-10T04:23:51.299Z,3.6
2018-05-10T04:24:51.563Z,3.7
2018-05-10T04:25:51.279Z,4.0
2018-05-10T04:26:51.255Z,3.9
2018-05-10T04:27:51.422Z,3.8
2018-05-10T04:28:51.287Z,3.9
2018-05-10T04:29:51.390Z,3.8
2018-05-10T04:30:51.209Z,3.7
2018-05-10T04:31:51.337Z,3.8
2018-05-10T04:32:51.260Z,3.8
2018-05-10T04:33:51.228Z,3.8
2018-05-10T04:34:51.238Z,3.6
2018-05-10T04:35:51.345Z,3.8
2018-05-10T04:36:51.236Z,4.0
2018-05-10T04:37:51.249Z,3.9
2018-05-10T04:38:51.325Z,3.5
2018-05-10T04:39:51.535Z,4.1
2018-05-10T04:40:51.279Z,3.9
2018-05-10T04:41:51.289Z,4.0
2018-05-10T04:42:51.542Z,3.9
2018-05-10T04:43:51.268Z,3.8
2018-05-10T04:44:51.526Z,3.4
2018-05-10T04:45:51.527Z,4.0
2018-05-10T04:46:51.242Z,3.9
2018-05-10T04:47:51.557Z,3.7
2018-05-10T04:48:51.567Z,3.7
2018-05-10T04:49:51.252Z,3.9
2018-05-10T04:50:51.306Z,3.7
2018-05-10T04:51:51.303Z,3.6
2018-05-10T04:52:51.230Z,3.7
2018-05-10T04:53:51.324Z,3.8
2018-05-10T04:54:51.361Z,3.9
2018-05-10T04:55:51.315Z,3.6
2018-05-10T04:56:51.281Z,3.9
2018-05-10T04:57:51.258Z,3.8
2018-05-10T04:58:51.542Z,3.7
2018-05-10T04:59:51.314Z,3.7
2018-05-10T05:00:51.290Z,3.7
2018-05-10T05:01:51.329Z,3.7
2018-05-10T05:02:51.323Z,3.6
2018-05-10T05:03:51.318Z,3.7
2018-05-10T05:04:51.300Z,3.5
2018-05-10T05:05:51.312Z,3.8
2018-05-10T05:06:51.277Z,3.8
2018-05-10T05:07:51.592Z,3.9
2018-05-10T05:08:51.400Z,3.9
2018-05-10T05:09:51.648Z,3.6
2018-05-10T05:10:51.605Z,3.7
2018-05-10T05:11:51.387Z,3.6
2018-05-10T05:12:51.419Z,3.9
2018-05-10T05:13:51.332Z,3.7
2018-05-10T05:14:51.324Z,3.5
2018-05-10T05:15:51.337Z,3.9
2018-05-10T05:16:51.321Z,3.7
2018-05-10T05:17:51.343Z,3.7
2018-05-10T05:18:51.337Z,3.6
2018-05-10T05:19:51.349Z,3.7
2018-05-10T05:20:51.598Z,3.8
2018-05-10T05:21:51.952Z,3.7
2018-05-10T05:22:51.338Z,3.7
2018-05-10T05:23:51.366Z,4.2
2018-05-10T05:24:51.349Z,3.9
2018-05-10T05:25:51.617Z,3.5
2018-05-10T05:26:51.384Z,3.8
2018-05-10T05:27:51.406Z,3.7
2018-05-10T05:28:51.363Z,3.7
2018-05-10T05:29:51.386Z,3.7
2018-05-10T05:30:51.464Z,3.6
2018-05-10T05:31:51.669Z,3.8
2018-05-10T05:32:51.426Z,3.7
2018-05-10T05:33:51.361Z,3.7
2018-05-10T05:34:51.385Z,3.8
2018-05-10T05:35:51.341Z,3.7
2018-05-10T05:36:51.368Z,3.7
2018-05-10T05:37:51.357Z,3.7
2018-05-10T05:38:51.365Z,3.6
2018-05-10T05:39:51.670Z,3.8
2018-05-10T05:40:51.379Z,3.6
2018-05-10T05:42:07.583Z,3.7
2018-05-10T05:42:51.442Z,3.7
2018-05-10T05:43:51.624Z,3.8
2018-05-10T05:44:51.386Z,4.1
2018-05-10T05:45:51.446Z,4.1
2018-05-10T05:46:51.665Z,4.2
2018-05-10T05:47:51.358Z,3.9
2018-05-10T05:48:51.675Z,3.7
2018-05-10T05:49:51.372Z,4.0
2018-05-10T05:50:51.404Z,3.8
2018-05-10T05:51:51.646Z,3.8
2018-05-10T05:52:51.687Z,3.8
2018-05-10T05:53:51.397Z,4.0
2018-05-10T05:54:51.346Z,3.9
2018-05-10T05:55:51.721Z,3.9
2018-05-10T05:56:51.427Z,4.0
2018-05-10T05:57:51.380Z,3.6
2018-05-10T05:58:51.440Z,4.1
2018-05-10T05:59:51.413Z,3.6
2018-05-10T06:00:51.785Z,3.9
2018-05-10T06:01:51.749Z,4.2
2018-05-10T06:02:51.434Z,4.0
2018-05-10T06:03:51.665Z,3.8
2018-05-10T06:04:51.702Z,3.7
2018-05-10T06:05:51.402Z,4.1
2018-05-10T06:06:51.441Z,4.0
2018-05-10T06:07:51.400Z,3.8
2018-05-10T06:08:51.407Z,4.0
2018-05-10T06:09:51.522Z,3.9
2018-05-10T06:10:51.474Z,3.6
2018-05-10T06:11:51.431Z,3.9
2018-05-10T06:12:51.418Z,4.0
2018-05-10T06:13:51.478Z,4.1
2018-05-10T06:14:51.730Z,3.7
2018-05-10T06:15:51.516Z,3.7
2018-05-10T06:16:51.718Z,3.9
2018-05-10T06:17:51.440Z,3.6
2018-05-10T06:18:51.462Z,3.8
2018-05-10T06:19:51.439Z,4.0
2018-05-10T06:20:51.936Z,5.0
2018-05-10T06:21:51.432Z,6.1
2018-05-10T06:22:51.804Z,6.4
2018-05-10T06:23:51.669Z,6.5
2018-05-10T06:24:51.621Z,6.4
2018-05-10T06:25:51.446Z,6.8
2018-05-10T06:26:51.696Z,6.7
2018-05-10T06:27:51.431Z,6.4
2018-05-10T06:28:51.463Z,6.2
2018-05-10T06:29:51.818Z,5.4
2018-05-10T06:30:51.881Z,5.4
2018-05-10T06:31:51.456Z,5.1
2018-05-10T06:32:51.475Z,5.0
2018-05-10T06:33:51.809Z,4.9
2018-05-10T06:34:51.506Z,4.9
2018-05-10T06:35:51.882Z,4.6
2018-05-10T06:36:51.476Z,4.6
2018-05-10T06:37:51.911Z,4.5
2018-05-10T06:38:51.521Z,4.4
2018-05-10T06:39:51.426Z,4.2
2018-05-10T06:40:51.721Z,4.2
2018-05-10T06:41:51.469Z,4.0
2018-05-10T06:42:51.817Z,4.1
2018-05-10T06:43:51.749Z,3.8
2018-05-10T06:44:51.502Z,3.7
2018-05-10T06:45:51.523Z,3.9
2018-05-10T06:46:51.815Z,3.9
2018-05-10T06:47:51.513Z,3.6
2018-05-10T06:48:51.488Z,3.6
2018-05-10T06:49:51.756Z,3.4
2018-05-10T06:50:51.522Z,3.8
2018-05-10T06:51:51.511Z,3.8
2018-05-10T06:52:51.535Z,3.8
2018-05-10T06:53:51.494Z,3.6
2018-05-10T06:54:51.567Z,3.9
2018-05-10T06:55:51.590Z,3.7
2018-05-10T06:56:51.525Z,3.3
2018-05-10T06:57:51.569Z,3.8
2018-05-10T06:58:51.515Z,3.9
2018-05-10T06:59:51.568Z,3.9
2018-05-10T07:00:51.548Z,3.7
2018-05-10T07:01:51.525Z,3.9
2018-05-10T07:02:52.202Z,3.7
2018-05-10T07:03:51.860Z,3.5
2018-05-10T07:04:51.582Z,3.8
2018-05-10T07:05:52.016Z,3.6
2018-05-10T07:06:54.095Z,3.6
2018-05-10T07:07:53.689Z,3.4
2018-05-10T07:08:54.173Z,3.5
2018-05-10T07:09:51.754Z,3.5
2018-05-10T07:10:52.485Z,3.5
2018-05-10T07:11:51.724Z,3.8
2018-05-10T07:12:51.889Z,3.4
2018-05-10T07:13:51.691Z,3.6
2018-05-10T07:14:51.543Z,3.6
2018-05-10T07:15:51.821Z,3.4
2018-05-10T07:16:52.003Z,3.6
2018-05-10T07:17:51.943Z,3.6
2018-05-10T07:18:51.597Z,3.6
2018-05-10T07:19:51.724Z,3.6
2018-05-10T07:20:51.686Z,3.4
2018-05-10T07:21:51.881Z,3.3
2018-05-10T07:22:51.604Z,3.4
2018-05-10T07:23:52.384Z,3.3
2018-05-10T07:24:51.615Z,3.5
2018-05-10T07:25:51.932Z,3.5
2018-05-10T07:26:51.615Z,3.7
2018-05-10T07:27:51.642Z,3.4
2018-05-10T07:28:51.631Z,3.3
2018-05-10T07:29:52.018Z,3.1
2018-05-10T07:30:51.877Z,3.3
2018-05-10T07:31:52.262Z,3.4
2018-05-10T07:32:51.924Z,3.6
2018-05-10T07:33:51.701Z,3.6
2018-05-10T07:34:51.674Z,3.7
2018-05-10T07:35:51.944Z,3.4
2018-05-10T07:36:51.570Z,3.4
2018-05-10T07:37:51.640Z,3.6
2018-05-10T07:38:51.589Z,3.3
2018-05-10T07:39:51.744Z,3.6
2018-05-10T07:40:51.551Z,3.4
2018-05-10T07:41:51.930Z,3.4
2018-05-10T07:42:51.646Z,3.3
2018-05-10T07:43:51.584Z,3.2
2018-05-10T07:44:51.626Z,3.3
2018-05-10T07:45:52.945Z,3.3
2018-05-10T07:46:51.741Z,3.2
2018-05-10T07:47:52.508Z,3.6
2018-05-10T07:48:51.632Z,3.3
2018-05-10T07:49:51.779Z,3.8
2018-05-10T07:50:51.619Z,3.7
2018-05-10T07:51:51.765Z,3.7
2018-05-10T07:52:51.717Z,3.5
2018-05-10T07:53:51.721Z,3.5
2018-05-10T07:54:51.611Z,3.4
2018-05-10T07:55:51.725Z,3.3
2018-05-10T07:56:51.649Z,3.6
2018-05-10T07:57:51.695Z,3.2
2018-05-10T07:58:51.961Z,3.7
2018-05-10T07:59:51.921Z,3.5
2018-05-10T08:00:51.705Z,3.3
2018-05-10T08:01:51.663Z,3.4
2018-05-10T08:02:52.537Z,3.4
2018-05-10T08:03:51.919Z,3.6
2018-05-10T08:04:51.780Z,3.2
2018-05-10T08:05:51.965Z,3.4
2018-05-10T08:06:51.630Z,3.2
2018-05-10T08:07:51.609Z,3.5
2018-05-10T08:08:51.895Z,3.7
2018-05-10T08:09:51.995Z,3.8
2018-05-10T08:10:51.675Z,3.8
2018-05-10T08:11:52.033Z,3.2
2018-05-10T08:12:51.650Z,3.6
2018-05-10T08:13:51.627Z,3.7
2018-05-10T08:14:51.939Z,3.6
2018-05-10T08:15:51.603Z,3.3
2018-05-10T08:16:51.975Z,3.7
2018-05-10T08:17:51.673Z,3.3
2018-05-10T08:18:51.713Z,3.9
2018-05-10T08:19:51.650Z,3.6
2018-05-10T08:20:51.967Z,3.4
2018-05-10T08:21:51.718Z,3.6
2018-05-10T08:22:51.692Z,3.6
2018-05-10T08:23:51.939Z,3.5
2018-05-10T08:24:51.692Z,3.5
2018-05-10T08:25:51.706Z,3.2
2018-05-10T08:26:52.387Z,3.5
2018-05-10T08:27:52.225Z,3.1
2018-05-10T08:28:53.762Z,3.2
2018-05-10T08:29:51.758Z,3.1
2018-05-10T08:30:51.834Z,3.2
2018-05-10T08:31:54.813Z,3.3
2018-05-10T08:32:51.691Z,3.4
2018-05-10T08:33:52.167Z,3.3
2018-05-10T08:34:55.175Z,3.4
2018-05-10T08:35:52.283Z,3.1
2018-05-10T08:36:54.290Z,3.4
2018-05-10T08:38:51.989Z,3.2
2018-05-10T08:39:55.219Z,3.4
2018-05-10T08:40:51.797Z,3.3
2018-05-10T08:41:52.218Z,3.5
2018-05-10T08:42:52.037Z,3.6
2018-05-10T08:43:52.542Z,3.5
2018-05-10T08:44:52.551Z,3.2
2018-05-10T08:45:52.350Z,3.5
2018-05-10T08:46:52.446Z,3.6
2018-05-10T08:47:52.770Z,3.3
2018-05-10T08:48:52.583Z,3.4
2018-05-10T08:49:51.967Z,3.2
2018-05-10T08:50:51.880Z,3.0
2018-05-10T08:51:51.877Z,3.4
2018-05-10T08:52:52.004Z,3.3
2018-05-10T08:53:51.758Z,3.5
2018-05-10T08:54:52.276Z,3.1
2018-05-10T08:55:51.851Z,3.2
2018-05-10T08:56:52.076Z,3.4
2018-05-10T08:57:51.920Z,3.2
2018-05-10T08:58:53.111Z,3.2
2018-05-10T09:00:51.960Z,3.1
2018-05-10T09:01:52.084Z,3.2
2018-05-10T09:02:52.281Z,3.3
2018-05-10T09:03:52.066Z,3.0
2018-05-10T09:04:52.224Z,3.3
2018-05-10T09:05:51.863Z,3.2
2018-05-10T09:06:52.097Z,2.9
2018-05-10T09:07:51.808Z,3.3
2018-05-10T09:08:52.222Z,2.9
2018-05-10T09:09:52.530Z,2.8
2018-05-10T09:10:52.915Z,2.9
2018-05-10T09:11:52.198Z,3.0
2018-05-10T09:12:51.856Z,2.7
2018-05-10T09:13:53.657Z,3.1
2018-05-10T09:14:52.562Z,2.9
2018-05-10T09:15:53.799Z,2.9
2018-05-10T09:16:52.864Z,2.8
2018-05-10T09:17:51.926Z,2.9
2018-05-10T09:18:52.482Z,2.8
2018-05-10T09:19:51.852Z,3.1
2018-05-10T09:20:52.092Z,3.1
2018-05-10T09:21:51.833Z,2.9
2018-05-10T09:22:51.891Z,3.0
2018-05-10T09:23:51.881Z,2.8
2018-05-10T09:24:52.896Z,2.9
2018-05-10T09:25:52.615Z,3.0
2018-05-10T09:26:51.956Z,2.9
2018-05-10T09:27:51.945Z,2.8
2018-05-10T09:28:52.756Z,2.7
2018-05-10T09:29:52.056Z,2.7
2018-05-10T09:31:08.113Z,2.5
2018-05-10T09:31:52.302Z,2.6
2018-05-10T09:32:51.904Z,2.7
2018-05-10T09:33:52.351Z,2.5
2018-05-10T09:34:52.136Z,2.7
2018-05-10T09:35:51.836Z,2.7
2018-05-10T09:36:51.938Z,2.7
2018-05-10T09:37:51.973Z,2.8
2018-05-10T09:38:52.123Z,2.7
2018-05-10T09:39:52.322Z,2.7
2018-05-10T09:40:52.099Z,2.8
2018-05-10T09:41:52.230Z,2.7
2018-05-10T09:42:51.934Z,2.6
2018-05-10T09:43:52.679Z,2.6
2018-05-10T09:44:52.136Z,2.7
2018-05-10T09:45:51.951Z,2.6
2018-05-10T09:46:52.302Z,2.6
2018-05-10T09:47:51.985Z,2.4
2018-05-10T09:48:51.998Z,2.8
2018-05-10T09:49:52.122Z,2.9
2018-05-10T09:50:52.219Z,2.6
2018-05-10T09:51:51.960Z,2.8
2018-05-10T09:52:51.969Z,2.7
2018-05-10T09:53:52.267Z,2.6
2018-05-10T09:54:52.119Z,2.7
2018-05-10T09:55:52.116Z,2.6
2018-05-10T09:56:52.339Z,2.8
2018-05-10T09:57:51.974Z,2.9
2018-05-10T09:58:51.925Z,2.6
2018-05-10T09:59:52.028Z,2.7
2018-05-10T10:00:52.277Z,2.9
2018-05-10T10:01:52.915Z,2.8
2018-05-10T10:02:52.055Z,3.0
2018-05-10T10:03:52.216Z,2.8
2018-05-10T10:04:52.058Z,2.8
2018-05-10T10:05:51.977Z,2.8
2018-05-10T10:06:52.307Z,2.8
2018-05-10T10:07:52.114Z,2.9
2018-05-10T10:08:52.314Z,2.7
2018-05-10T10:09:51.923Z,2.9
2018-05-10T10:10:52.603Z,2.8
2018-05-10T10:11:52.118Z,2.8
2018-05-10T10:12:52.408Z,2.8
2018-05-10T10:13:52.618Z,2.7
2018-05-10T10:14:52.219Z,2.7
2018-05-10T10:15:52.290Z,2.7
2018-05-10T10:16:52.344Z,2.7
2018-05-10T10:17:52.012Z,2.6
2018-05-10T10:18:52.002Z,3.0
2018-05-10T10:19:52.163Z,3.0
2018-05-10T10:20:52.360Z,2.7
2018-05-10T10:21:52.011Z,3.0
2018-05-10T10:22:52.012Z,2.7
2018-05-10T10:23:52.297Z,3.1
2018-05-10T10:24:52.105Z,3.1
2018-05-10T10:25:52.090Z,2.9
2018-05-10T10:26:51.996Z,3.1
2018-05-10T10:27:51.939Z,2.6
2018-05-10T10:28:51.998Z,2.6
2018-05-10T10:29:51.988Z,2.9
2018-05-10T10:30:52.005Z,3.1
2018-05-10T10:31:52.344Z,2.9
2018-05-10T10:32:52.009Z,2.8
2018-05-10T10:33:52.066Z,2.8
2018-05-10T10:34:52.370Z,2.9
2018-05-10T10:35:52.109Z,3.2
2018-05-10T10:36:52.029Z,3.0
2018-05-10T10:37:52.005Z,2.9
2018-05-10T10:38:51.999Z,2.9
2018-05-10T10:39:51.976Z,3.0
2018-05-10T10:40:52.631Z,3.2
2018-05-10T10:41:52.064Z,3.5
2018-05-10T10:42:52.483Z,3.0
2018-05-10T10:43:52.393Z,3.1
2018-05-10T10:44:51.975Z,3.4
2018-05-10T10:45:52.041Z,3.1
2018-05-10T10:46:52.021Z,3.5
2018-05-10T10:47:52.433Z,3.3
2018-05-10T10:48:51.957Z,3.8
2018-05-10T10:49:51.978Z,3.5
2018-05-10T10:50:52.093Z,3.7
2018-05-10T10:51:52.429Z,3.2
2018-05-10T10:52:52.076Z,3.6
2018-05-10T10:53:52.123Z,3.4
2018-05-10T10:54:51.998Z,3.2
2018-05-10T10:55:51.996Z,3.5
2018-05-10T10:56:52.028Z,3.2
2018-05-10T10:57:52.144Z,3.2
2018-05-10T10:58:52.373Z,3.4
2018-05-10T10:59:52.160Z,3.4
2018-05-10T11:00:52.379Z,3.1
2018-05-10T11:01:52.562Z,3.2
2018-05-10T11:02:52.077Z,3.2
2018-05-10T11:03:52.120Z,3.1
2018-05-10T11:04:52.451Z,3.0
2018-05-10T11:05:52.196Z,3.2
2018-05-10T11:06:52.423Z,3.0
2018-05-10T11:07:52.127Z,2.8
2018-05-10T11:08:52.270Z,2.9
2018-05-10T11:09:52.049Z,3.1
2018-05-10T11:10:52.152Z,3.0
2018-05-10T11:11:52.501Z,3.0
2018-05-10T11:12:52.170Z,3.0
2018-05-10T11:13:52.098Z,3.0
2018-05-10T11:14:52.601Z,3.0
2018-05-10T11:15:52.408Z,2.9
2018-05-10T11:16:52.156Z,2.8
2018-05-10T11:17:52.892Z,3.0
2018-05-10T11:18:52.208Z,3.0
2018-05-10T11:19:52.562Z,2.7
2018-05-10T11:20:52.327Z,3.0
2018-05-10T11:21:52.810Z,3.0
2018-05-10T11:22:52.408Z,3.1
2018-05-10T11:23:52.201Z,2.9
2018-05-10T11:24:52.260Z,3.0
2018-05-10T11:25:52.180Z,2.7
2018-05-10T11:26:52.323Z,2.9
2018-05-10T11:27:52.397Z,3.0
2018-05-10T11:28:52.391Z,2.7
2018-05-10T11:29:52.226Z,2.8
2018-05-10T11:30:52.504Z,3.0
2018-05-10T11:31:52.620Z,3.1
2018-05-10T11:32:52.401Z,2.8
2018-05-10T11:33:52.269Z,3.1
2018-05-10T11:34:52.300Z,3.0
2018-05-10T11:35:54.356Z,2.9
2018-05-10T11:36:52.191Z,2.8
2018-05-10T11:37:52.609Z,2.9
2018-05-10T11:38:52.140Z,2.8
2018-05-10T11:39:52.184Z,2.9
2018-05-10T11:40:52.633Z,2.7
2018-05-10T11:41:52.345Z,2.7
2018-05-10T11:42:52.416Z,2.8
2018-05-10T11:43:53.265Z,2.7
2018-05-10T11:44:52.679Z,3.0
2018-05-10T11:45:53.029Z,2.7
2018-05-10T11:46:52.780Z,2.9
2018-05-10T11:47:52.660Z,2.9
2018-05-10T11:48:52.600Z,3.1
2018-05-10T11:49:52.337Z,2.6
2018-05-10T11:50:52.589Z,3.0
2018-05-10T11:51:53.619Z,3.2
2018-05-10T11:52:52.578Z,3.1
2018-05-10T11:53:52.127Z,3.1
2018-05-10T11:54:52.141Z,3.1
2018-05-10T11:55:52.483Z,3.0
2018-05-10T11:56:53.142Z,3.1
2018-05-10T11:57:52.328Z,3.0
2018-05-10T11:59:52.535Z,3.1
2018-05-10T12:00:52.575Z,3.2
2018-05-10T12:01:53.442Z,3.0
2018-05-10T12:02:52.264Z,3.3
2018-05-10T12:03:52.174Z,2.9
2018-05-10T12:04:52.421Z,3.2
2018-05-10T12:05:52.507Z,3.0
2018-05-10T12:06:52.310Z,3.0
2018-05-10T12:07:52.426Z,3.1
2018-05-10T12:08:52.554Z,3.1
2018-05-10T12:09:52.295Z,2.9
2018-05-10T12:10:52.917Z,2.9
2018-05-10T12:11:52.350Z,3.1
2018-05-10T12:12:52.283Z,3.1
2018-05-10T12:13:52.195Z,3.2
2018-05-10T12:14:52.419Z,3.3
2018-05-10T12:15:52.789Z,3.3
2018-05-10T12:16:52.847Z,3.3
2018-05-10T12:17:52.422Z,3.3
2018-05-10T12:18:52.732Z,3.4
2018-05-10T12:19:52.450Z,3.4
2018-05-10T12:20:52.833Z,3.3
2018-05-10T12:21:53.255Z,3.3
2018-05-10T12:22:52.160Z,3.3
2018-05-10T12:23:52.456Z,3.8
2018-05-10T12:24:52.426Z,3.5
2018-05-10T12:25:52.313Z,3.5
2018-05-10T12:26:52.229Z,3.5
2018-05-10T12:27:52.480Z,3.6
2018-05-10T12:28:52.260Z,3.7
2018-05-10T12:29:52.605Z,3.9
2018-05-10T12:30:52.543Z,3.8
2018-05-10T12:31:52.394Z,3.9
2018-05-10T12:32:52.464Z,3.7
2018-05-10T12:33:52.184Z,3.6
2018-05-10T12:34:52.489Z,3.8
2018-05-10T12:35:52.179Z,3.9
2018-05-10T12:36:52.949Z,3.6
2018-05-10T12:37:53.219Z,3.5
2018-05-10T12:38:52.670Z,3.6
2018-05-10T12:39:52.351Z,3.5
2018-05-10T12:40:52.353Z,3.6
2018-05-10T12:41:52.938Z,3.6
2018-05-10T12:42:52.439Z,3.3
2018-05-10T12:43:52.449Z,3.6
2018-05-10T12:44:52.347Z,3.4
2018-05-10T12:45:52.916Z,3.4
2018-05-10T12:46:52.960Z,3.5
2018-05-10T12:47:52.543Z,3.2
2018-05-10T12:48:54.015Z,3.4
2018-05-10T12:49:52.966Z,3.3
2018-05-10T12:50:53.351Z,3.4
2018-05-10T12:51:55.845Z,3.4
2018-05-10T12:52:52.746Z,3.1
2018-05-10T12:53:52.275Z,3.2
2018-05-10T12:54:52.200Z,3.1
2018-05-10T12:55:52.325Z,3.1
2018-05-10T12:56:52.520Z,3.0
2018-05-10T12:57:52.309Z,3.1
2018-05-10T12:58:52.260Z,3.2
2018-05-10T12:59:52.451Z,3.1
2018-05-10T13:00:52.346Z,3.3
2018-05-10T13:01:52.248Z,2.8
2018-05-10T13:02:52.348Z,2.9
2018-05-10T13:03:53.076Z,3.0
2018-05-10T13:04:53.322Z,3.0
2018-05-10T13:05:52.754Z,3.0
2018-05-10T13:06:52.599Z,2.9
2018-05-10T13:07:53.116Z,3.0
2018-05-10T13:08:52.296Z,3.2
2018-05-10T13:09:52.280Z,2.8
2018-05-10T13:10:52.226Z,3.1
2018-05-10T13:11:52.508Z,2.7
2018-05-10T13:12:52.208Z,3.0
2018-05-10T13:13:52.580Z,2.7
2018-05-10T13:14:52.411Z,2.7
2018-05-10T13:15:52.607Z,2.8
2018-05-10T13:16:52.632Z,2.9
2018-05-10T13:17:52.281Z,2.9
2018-05-10T13:18:52.289Z,2.8
2018-05-10T13:19:52.275Z,3.0
2018-05-10T13:20:52.477Z,2.8
2018-05-10T13:21:52.738Z,2.6
2018-05-10T13:22:52.344Z,2.6
2018-05-10T13:23:52.235Z,3.0
2018-05-10T13:24:52.345Z,2.9
2018-05-10T13:25:52.676Z,2.8
2018-05-10T13:26:52.285Z,2.9
2018-05-10T13:27:52.294Z,2.7
2018-05-10T13:28:52.371Z,2.7
2018-05-10T13:29:52.395Z,2.9
2018-05-10T13:30:52.282Z,2.6
2018-05-10T13:31:52.457Z,2.9
2018-05-10T13:32:52.622Z,2.7
2018-05-10T13:33:52.279Z,2.4
2018-05-10T13:34:52.277Z,2.8
2018-05-10T13:35:52.367Z,2.6
2018-05-10T13:36:52.333Z,2.7
2018-05-10T13:37:52.280Z,2.6
2018-05-10T13:38:54.346Z,2.7
2018-05-10T13:39:52.380Z,2.6
2018-05-10T13:40:52.329Z,2.6
2018-05-10T13:41:52.606Z,2.7
2018-05-10T13:42:52.384Z,2.6
2018-05-10T13:43:52.596Z,2.7
2018-05-10T13:44:52.314Z,2.9
2018-05-10T13:45:53.187Z,2.6
2018-05-10T13:46:52.643Z,2.7
2018-05-10T13:47:52.396Z,2.6
2018-05-10T13:48:52.565Z,2.7
2018-05-10T13:49:52.375Z,2.6
2018-05-10T13:50:52.284Z,2.6
2018-05-10T13:51:52.278Z,2.5
2018-05-10T13:52:52.488Z,2.6
2018-05-10T13:53:52.663Z,2.8